This is the latest recevied weather packets stored in our database for station/object KG7QQL. If no packets are shown the sender has not sent any weather packets the latest 10 day(s).
| Time | Temp. | Humidity | Pressure | Rain* | Wind** | Luminosity | Snow |
|---|---|---|---|---|---|---|---|
| 1777667312 | 18.89° C | 63% | - | 0 mm | - | - | - |
| 1777667009 | 18.89° C | 62% | - | 0 mm | - | - | - |
| 1777666706 | 18.89° C | 63% | - | 0 mm | - | - | - |
| 1777666402 | 18.33° C | 63% | - | 0 mm | - | - | - |
| 1777666093 | 18.89° C | 62% | - | 0 mm | - | - | - |
| 1777665791 | 18.33° C | 62% | - | 0 mm | - | - | - |
| 1777665489 | 17.78° C | 64% | - | 0 mm | - | - | - |
| 1777665184 | 18.33° C | 65% | - | 0 mm | - | - | - |
| 1777664880 | 18.33° C | 63% | - | 0 mm | - | - | - |
| 1777664576 | 18.33° C | 65% | - | 0 mm | - | - | - |
| 1777664273 | 18.33° C | 65% | - | 0 mm | - | - | - |
| 1777663971 | 17.78° C | 67% | - | 0 mm | - | - | - |
| 1777663668 | 17.78° C | 66% | - | 0 mm | - | - | - |
| 1777663365 | 17.78° C | 67% | - | 0 mm | - | - | - |
| 1777663062 | 17.78° C | 67% | - | 0 mm | - | - | - |
| 1777662759 | 17.78° C | 67% | - | 0 mm | - | - | - |
| 1777662456 | 17.78° C | 67% | - | 0 mm | - | - | - |
| 1777662152 | 17.22° C | 68% | - | 0 mm | - | - | - |
| 1777661848 | 16.67° C | 70% | - | 0 mm | - | - | - |
| 1777661544 | 16.67° C | 71% | - | 0 mm | - | - | - |
| 1777661240 | 16.11° C | 72% | - | 0 mm | - | - | - |
| 1777660935 | 15.56° C | 73% | - | 0 mm | - | - | - |
| 1777660631 | 16.11° C | 70% | - | 0 mm | - | - | - |
| 1777660329 | 16.11° C | 72% | - | 0 mm | - | - | - |
| 1777660025 | 16.11° C | 71% | - | 0 mm | - | - | - |
* Rain latest hour (hover to see other rain measurements)
** Current wind speed in m/s (hover to see current wind gust speed)